Portada
METAR-TAF:

METAR-TAF

Aeropuertos :

León, España

Aeropuerto de León

latitud: 42-35N, longitud: 005-39W, altitud: 926 m

Observación

El informe se hizo hace 58 minutos, a las 15:00 UTC
Viento 4 kt del sureste, variando entre este y sur-suroeste
Temperatura 9°C
Humedad 21%
Presión 1005 hPa
Visibilidad 10 km o más
sin nubes por debajo de 1500 m y sin presencia de cumulonimbus.

METAR: LELN 241500Z 14004KT 080V200 CAVOK 09/M12 Q1005

Hora: 16:58 (15:58 UTC)

Pronóstico

El informe se hizo hace 1 hora y 58 minutos, a las 14:00 UTC
Pronóstico válido del 24 a las 15 UTC al 24 a las 24 UTC
Viento 5 kt con dirección variable
Visibilidad 10 km o más
sin nubes por debajo de 1500 m y sin presencia de cumulonimbus.

TAF: LELN 241400Z 2415/2424 VRB05KT CAVOK

Observaciones y pronósticos meteorológicos de más de 4000 aeropuertos (mensajes METAR y TAF).

Los puntos amarillos y rojos representan las estaciones disponibles.

Ponga el ratón en el punto deseado para ver el nombre de la estación.

Haga clic para ver las observaciones y los pronósticos meteorológicos.

Para cambiar el mapa : haga clic en los botones verdes con una cruz de color negro para hacer un zoom, en el botón verde con un guión para alejar o en las flechas verdes para mapas adyacentes.


METAR-TAF: